• Join FlightAware (Why Join?)
  • Login
  • US Flag 
02:34AM EDT


 

Airport Tracker/Info


-or-


 

Live Flight TrackerFlight Track Log ✈ N319EE ✈ 18-Jun-2014 ✈ KAUG - KBGM

Flight Track Log - Related Links

Times and Time Zones

All times are in EDT time to prevent confusion due to time zone crossing. See the N319EE flight status page for this flight to view local times or setup timezone preferences in your user account.

Time Position Orientation Groundspeed Altitude Reporting Facility
EDT Latitude Longitude Course Direction KTS MPH feet Rate Location/Type
06:21PM 44.3325 -69.9319 246° West 168 193 6,300  Level Boston Center
06:22PM 44.3103 -69.9969 244° Southwest 170 196 8,800 2,280 Climbing Boston Center
06:23PM 44.2914 -70.0611 248° West 177 204 11,100 2,100 Climbing Boston Center
06:24PM 44.2703 -70.1350 248° West 188 216 13,100 1,560 Climbing Boston Center
06:25PM 44.2461 -70.2081 245° Southwest 208 239 14,300 1,200 Climbing Boston Center
06:26PM 44.1516 -70.2544 241° Southwest  Level FlightAware Approximate
06:27PM 44.2222 -70.2814 246° West 209 241 15,600  Level Boston Center
06:28PM 44.1969 -70.3667 248° West 223 257 16,100 180 Climbing Boston Center
06:29PM 44.1689 -70.4533 246° West 243 280 16,000 -60 Descending Boston Center
06:30PM 44.1414 -70.5403 246° West 244 281 16,000  Level Boston Center
06:31PM 44.1117 -70.6317 246° West 244 281 16,000  Level Boston Center
06:32PM 44.0847 -70.7150 246° West 240 276 16,000  Level Boston Center
06:33PM 44.0544 -70.8058 245° Southwest 239 275 16,100  Climbing Boston Center
06:34PM 44.0269 -70.8903 246° West 240 276 16,100  Level Boston Center
06:35PM 44.0008 -70.9722 246° West 237 273 16,100  Level Boston Center
06:36PM 43.9714 -71.0622 246° West 237 273 16,100  Level Boston Center
06:37PM 43.9450 -71.1439 246° West 235 270 16,200  Climbing Boston Center
06:38PM 43.9172 -71.2228 244° Southwest 236 272 16,100 -60 Descending Boston Center
06:39PM 43.8906 -71.3072 246° West 238 274 16,100  Level Boston Center
06:40PM 43.8636 -71.3894 246° West 237 273 16,100 -60 Level Boston Center
06:41PM 43.8344 -71.4742 245° Southwest 239 275 16,000 -60 Descending Boston Center
06:42PM 43.8064 -71.5606 246° West 240 276 16,000 180 Level Boston Center
06:43PM 43.7803 -71.6417 246° West 238 274 16,400 480 Climbing Boston Center
06:44PM 43.7478 -71.7339 244° Southwest 225 259 17,100 240 Climbing Boston Center
06:45PM 43.7208 -71.8156 245° Southwest 228 262 17,000 -60 Descending Boston Center
06:46PM 43.6939 -71.8967 245° Southwest 231 266 17,000  Level Boston Center
06:47PM 43.6672 -71.9769 245° Southwest 231 266 17,000  Level Boston Center
06:48PM 43.6394 -72.0592 245° Southwest 232 267 17,000  Level Boston Center
06:49PM 43.6122 -72.1381 245° Southwest 232 267 17,000  Level Boston Center
06:50PM 43.5844 -72.2194 245° Southwest 232 267 17,000 -180 Level Boston Center
06:51PM 43.5514 -72.3167 245° Southwest 232 267 16,700 -420 Descending Boston Center
06:52PM 43.5211 -72.4017 244° Southwest 242 278 16,200 -300 Descending Boston Center
06:53PM 43.4919 -72.4894 245° Southwest 246 283 16,100 -120 Descending Boston Center
06:54PM 43.4625 -72.5742 244° Southwest 247 284 16,000 -60 Descending Boston Center
06:55PM 43.4328 -72.6592 244° Southwest 247 284 16,000  Level Boston Center
06:56PM 43.4022 -72.7436 244° Southwest 247 284 16,000  Level Boston Center
06:57PM 43.3742 -72.8294 246° West 247 284 16,000  Level Boston Center
06:58PM 43.3372 -72.9308 243° Southwest 248 285 16,000  Level Boston Center
06:59PM 43.3092 -73.0133 245° Southwest 246 283 16,000  Level Boston Center
07:00PM 43.2772 -73.1019 244° Southwest 243 280 16,000  Level Boston Center
07:01PM 43.2475 -73.1850 244° Southwest 243 280 16,000  Level Boston Center
07:02PM 43.2158 -73.2758 244° Southwest 244 281 16,000  Level Boston Center
07:04PM 43.1853 -73.3600 244° Southwest 245 282 16,000  Level Boston Center
07:05PM 43.1550 -73.4450 244° Southwest 246 283 16,000  Level Boston Center
07:06PM 43.1239 -73.5342 244° Southwest 245 282 16,000  Level Boston Center
07:07PM 43.0947 -73.6164 244° Southwest 242 278 16,000  Level Boston Center
07:08PM 43.0639 -73.7008 243° Southwest 245 282 16,000  Level Boston Center
07:09PM 43.0322 -73.7903 244° Southwest 245 282 16,000  Level Boston Center
07:10PM 43.0036 -73.8708 244° Southwest 240 276 16,000  Level Boston Center
07:11PM 42.9719 -73.9572 243° Southwest 239 275 16,000  Level Boston Center
07:12PM 42.9431 -74.0386 244° Southwest 239 275 16,000  Level Boston Center
07:13PM 42.9142 -74.1183 244° Southwest 239 275 16,000  Level Boston Center
07:14PM 42.8833 -74.2006 243° Southwest 230 265 16,000  Level Boston Center
07:15PM 42.8550 -74.2769 243° Southwest 229 264 16,000  Level Boston Center
07:16PM 42.8253 -74.3567 243° Southwest 235 270 16,000  Level Boston Center
07:17PM 42.7944 -74.4403 243° Southwest 232 267 16,100  Climbing Boston Center
07:18PM 42.7669 -74.5169 244° Southwest 230 265 16,100  Level Boston Center
07:19PM 42.7400 -74.5883 243° Southwest 219 252 16,100  Level Boston Center
07:20PM 42.7106 -74.6672 243° Southwest 219 252 16,100 -360 Level Boston Center
07:21PM 42.6806 -74.7458 243° Southwest 234 269 15,400 -960 Descending Boston Center
07:22PM 42.6500 -74.8278 243° Southwest 248 285 14,200 -1,080 Descending Boston Center
07:23PM 42.6153 -74.9125 241° Southwest 254 292 13,200 -960 Descending Boston Center
07:24PM 42.5808 -74.9972 241° Southwest 256 295 12,200 -1,140 Descending Boston Center
07:25PM 42.5431 -75.0867 240° Southwest 257 296 11,000 -1,080 Descending Boston Center
07:26PM 42.5064 -75.1703 239° Southwest 257 296 10,100 -900 Descending Boston Center
07:27PM 42.4719 -75.2547 241° Southwest 257 296 9,200 -960 Descending Boston Center
07:28PM 42.4358 -75.3381 240° Southwest 257 296 8,100 -1,020 Descending Boston Center
07:29PM 42.4039 -75.4208 242° Southwest 253 291 7,100 -1,080 Descending Boston Center
07:30PM 42.3586 -75.5189 238° Southwest 254 292 6,000 -960 Descending Boston Center
07:31PM 42.3214 -75.6028 239° Southwest 257 296 5,200 -1,020 Descending Boston Center
07:32PM 42.2867 -75.6864 241° Southwest 257 296 4,000 -900 Descending Boston Center
07:33PM 42.2547 -75.7650 241° Southwest 252 290 3,400 -480 Descending Boston Center
07:34PM 42.2231 -75.8383 240° Southwest 240 276 3,100 -240 Descending Boston Center
07:35PM 42.1947 -75.9044 240° Southwest 224 258 3,000 -540 Descending Boston Center
07:36PM 42.1817 -75.9558 251° West 189 217 2,100 -900 Descending Boston Center
07:38PM 42.2000 -75.9667 217° Southwest  Level FlightAware Approximate
07:45PM 42.2084 -75.9796 217° Southwest  Level Estimated
07:46PM 42.2084 -75.9796 217° Southwest  Level Estimated